Time;durP1;ratioP1;P1;durP2;ratioP2;P2;SDS_P1;SDS_P2;PMS_P1;PMS_P2;Temp;Humidity;BMP_temperature;BMP_pressure;BME280_temperature;BME280_humidity;BME280_pressure;Samples;Min_cycle;Max_cycle;Signal;HPM_P1;HPM_P2
2020/12/28 00:01:05;;;;;;;7.40;5.83;;;6.10;99.90;;;;;;4998055;28;20548;-89
2020/12/28 00:03:30;;;;;;;7.37;5.37;;;6.10;99.90;;;;;;4966802;28;20158;-90
2020/12/28 00:05:56;;;;;;;11.00;5.87;;;6.10;99.90;;;;;;4965894;28;20183;-90
2020/12/28 00:08:21;;;;;;;8.10;5.10;;;6.00;99.90;;;;;;4985897;28;20174;-90
2020/12/28 00:10:47;;;;;;;7.93;5.07;;;6.00;99.90;;;;;;4999245;28;20244;-90
2020/12/28 00:13:13;;;;;;;11.03;4.77;;;6.00;99.90;;;;;;4980792;28;20177;-90
2020/12/28 00:15:38;;;;;;;8.77;4.50;;;5.90;99.90;;;;;;4963969;28;20300;-89
2020/12/28 00:18:04;;;;;;;9.77;5.77;;;5.90;99.90;;;;;;4969044;28;20223;-89
2020/12/28 00:20:31;;;;;;;6.20;4.00;;;5.90;99.90;;;;;;4999330;28;20180;-90
2020/12/28 00:22:57;;;;;;;6.10;4.40;;;5.90;99.90;;;;;;5003759;28;20173;-90
2020/12/28 00:25:24;;;;;;;5.13;3.97;;;5.80;99.90;;;;;;5016750;28;20260;-89
2020/12/28 00:27:51;;;;;;;8.83;4.17;;;5.70;99.90;;;;;;4999145;28;20184;-90
2020/12/28 00:30:18;;;;;;;8.73;4.23;;;5.70;99.90;;;;;;5000596;28;20549;-89
2020/12/28 00:32:44;;;;;;;7.30;4.33;;;5.30;99.90;;;;;;5000490;28;20177;-89
2020/12/28 00:35:10;;;;;;;7.87;3.83;;;5.10;99.90;;;;;;5000436;28;20556;-90
2020/12/28 00:37:37;;;;;;;5.80;4.40;;;5.10;99.90;;;;;;5016396;28;20179;-90
2020/12/28 00:40:04;;;;;;;7.77;5.03;;;5.00;99.90;;;;;;5017538;28;20165;-90
2020/12/28 00:42:30;;;;;;;4.67;3.97;;;5.10;99.90;;;;;;5000506;28;20176;-90
2020/12/28 00:44:57;;;;;;;8.93;4.20;;;5.30;99.90;;;;;;5017625;28;20180;-90
2020/12/28 00:47:22;;;;;;;7.90;4.33;;;5.40;99.90;;;;;;5006676;28;20157;-89
2020/12/28 00:49:48;;;;;;;6.63;5.00;;;5.40;99.90;;;;;;5006444;28;20188;-88
2020/12/28 00:52:14;;;;;;;6.10;4.60;;;5.50;99.90;;;;;;5022277;28;20164;-87
2020/12/28 00:54:39;;;;;;;6.50;5.63;;;5.40;99.90;;;;;;5019176;28;20231;-90
2020/12/28 00:57:05;;;;;;;8.23;5.80;;;5.50;99.90;;;;;;4983792;28;20181;-90
2020/12/28 00:59:30;;;;;;;12.70;8.83;;;5.60;99.90;;;;;;4996958;28;20276;-89
2020/12/28 01:01:57;;;;;;;10.00;6.23;;;5.60;99.90;;;;;;4980770;28;20177;-88
2020/12/28 01:04:23;;;;;;;8.67;6.17;;;5.70;99.90;;;;;;4991710;28;20196;-89
2020/12/28 01:06:49;;;;;;;9.23;5.97;;;5.70;99.90;;;;;;5018449;28;20201;-89
2020/12/28 01:09:16;;;;;;;8.40;5.03;;;5.70;99.90;;;;;;5017056;28;20170;-89
2020/12/28 01:11:42;;;;;;;14.53;5.03;;;5.50;99.90;;;;;;5002594;28;20635;-89
2020/12/28 01:14:09;;;;;;;6.90;4.33;;;5.60;99.90;;;;;;4980121;28;20249;-89
2020/12/28 01:16:35;;;;;;;11.93;5.20;;;5.50;99.90;;;;;;4992393;28;20165;-89
2020/12/28 01:19:00;;;;;;;7.47;4.57;;;5.40;99.90;;;;;;5006670;28;20239;-89
2020/12/28 01:21:26;;;;;;;7.57;4.80;;;5.30;99.90;;;;;;4983673;28;20611;-89
2020/12/28 01:23:52;;;;;;;6.30;4.93;;;5.20;99.90;;;;;;5000552;28;20179;-89
2020/12/28 01:26:18;;;;;;;12.30;5.80;;;5.00;99.90;;;;;;4967122;28;20180;-89
2020/12/28 01:28:45;;;;;;;13.47;5.87;;;4.70;99.90;;;;;;4995770;28;20195;-89
2020/12/28 01:31:11;;;;;;;8.03;5.60;;;4.70;99.90;;;;;;4979714;28;20177;-89
2020/12/28 01:33:37;;;;;;;12.13;6.03;;;4.90;99.90;;;;;;4995583;28;20184;-90
2020/12/28 01:36:03;;;;;;;19.10;7.03;;;5.10;99.90;;;;;;4995875;28;20201;-90
2020/12/28 01:38:29;;;;;;;9.83;6.50;;;5.30;99.90;;;;;;5003285;28;20172;-90
2020/12/28 01:40:59;;;;;;;15.70;7.50;;;5.30;99.90;;;;;;4999354;28;20169;-90
2020/12/28 01:43:28;;;;;;;19.10;7.40;;;5.20;99.90;;;;;;5015730;28;20169;-89
2020/12/28 01:45:56;;;;;;;18.30;8.50;;;5.40;99.90;;;;;;5016666;28;20626;-90
2020/12/28 01:48:21;;;;;;;13.87;7.00;;;5.40;99.90;;;;;;5016152;28;20191;-90
2020/12/28 01:50:47;;;;;;;14.93;7.13;;;5.50;99.90;;;;;;4999472;28;20181;-91
2020/12/28 01:53:16;;;;;;;19.43;7.10;;;5.40;99.90;;;;;;5015929;28;20165;-90
2020/12/28 01:55:45;;;;;;;16.40;7.90;;;5.50;99.90;;;;;;4984368;28;20298;-90
2020/12/28 01:58:11;;;;;;;11.53;7.37;;;5.40;99.90;;;;;;4996111;28;20182;-90
2020/12/28 02:00:37;;;;;;;10.40;7.10;;;5.40;99.90;;;;;;4988607;28;20207;-90
2020/12/28 02:03:07;;;;;;;15.77;7.17;;;5.40;99.90;;;;;;4999706;28;20177;-90
2020/12/28 02:05:33;;;;;;;12.80;7.17;;;5.40;99.90;;;;;;5015996;28;20168;-90
2020/12/28 02:08:00;;;;;;;8.57;6.90;;;5.30;99.90;;;;;;4983674;28;20532;-90
2020/12/28 02:10:25;;;;;;;12.40;7.40;;;5.40;99.90;;;;;;5000944;28;20176;-90
2020/12/28 02:12:51;;;;;;;8.80;6.83;;;5.40;99.90;;;;;;5003917;28;20618;-90
2020/12/28 02:15:17;;;;;;;13.90;7.30;;;5.20;99.90;;;;;;5003760;28;20197;-90
2020/12/28 02:17:43;;;;;;;15.07;7.50;;;5.30;99.90;;;;;;5020274;28;20171;-90
2020/12/28 02:20:09;;;;;;;11.73;7.13;;;5.20;99.90;;;;;;5002037;28;20652;-91
2020/12/28 02:22:35;;;;;;;15.00;7.13;;;5.30;99.90;;;;;;5002138;28;20200;-90
2020/12/28 02:25:00;;;;;;;12.07;6.63;;;5.20;99.90;;;;;;5018367;28;20176;-90
2020/12/28 02:27:29;;;;;;;11.00;7.30;;;5.20;99.90;;;;;;5017123;28;20191;-90
2020/12/28 02:29:54;;;;;;;12.97;6.50;;;5.10;99.90;;;;;;4983904;28;20185;-89
2020/12/28 02:32:20;;;;;;;8.67;6.77;;;5.00;99.90;;;;;;5000243;28;20271;-90
2020/12/28 02:34:46;;;;;;;12.77;6.40;;;5.00;99.90;;;;;;4984846;28;20661;-90
2020/12/28 02:37:11;;;;;;;11.77;6.87;;;5.00;99.90;;;;;;5001456;28;20176;-89
2020/12/28 02:39:37;;;;;;;9.90;6.40;;;5.00;99.90;;;;;;4984819;28;20177;-90
2020/12/28 02:42:03;;;;;;;16.67;6.63;;;5.00;99.90;;;;;;5000754;28;20179;-90
2020/12/28 02:44:28;;;;;;;9.43;5.87;;;5.00;99.90;;;;;;5018424;28;20577;-89
2020/12/28 02:46:54;;;;;;;11.23;5.70;;;5.00;99.90;;;;;;5000413;28;20180;-90
2020/12/28 02:49:20;;;;;;;12.53;5.43;;;4.90;99.90;;;;;;5000518;28;20169;-90
2020/12/28 02:51:47;;;;;;;12.77;5.70;;;4.90;99.90;;;;;;5001466;28;20526;-90
2020/12/28 02:54:13;;;;;;;9.43;5.73;;;4.80;99.90;;;;;;5002761;28;20243;-91
2020/12/28 02:56:38;;;;;;;9.53;5.27;;;4.80;99.90;;;;;;5003697;28;20195;-90
2020/12/28 02:59:04;;;;;;;10.07;5.30;;;4.80;99.90;;;;;;5002896;28;20184;-91
2020/12/28 03:01:30;;;;;;;6.17;5.67;;;4.90;99.90;;;;;;5021600;28;20172;-90
2020/12/28 03:03:55;;;;;;;11.20;5.07;;;4.90;99.90;;;;;;5003743;28;20169;-90
2020/12/28 03:06:21;;;;;;;9.47;4.77;;;5.00;99.90;;;;;;4986366;28;20176;-90
2020/12/28 03:08:47;;;;;;;16.10;5.47;;;5.10;99.90;;;;;;5021222;28;20176;-90
2020/12/28 03:11:12;;;;;;;11.57;5.40;;;5.10;99.90;;;;;;4988305;28;20192;-89
2020/12/28 03:13:38;;;;;;;15.00;6.13;;;5.20;99.90;;;;;;5010597;28;20195;-90
2020/12/28 03:16:04;;;;;;;5.90;5.00;;;5.10;99.90;;;;;;5008237;28;20196;-89
2020/12/28 03:18:32;;;;;;;11.87;4.50;;;5.20;99.90;;;;;;5008152;28;20161;-89
2020/12/28 03:20:58;;;;;;;7.37;3.93;;;5.20;99.90;;;;;;5004120;28;20192;-89
2020/12/28 03:23:25;;;;;;;6.67;4.17;;;5.20;99.90;;;;;;4988801;28;20181;-89
2020/12/28 03:25:50;;;;;;;7.87;4.40;;;5.20;99.90;;;;;;4987469;28;20184;-89
2020/12/28 03:28:16;;;;;;;7.67;4.17;;;5.20;99.90;;;;;;4987972;28;20196;-89
2020/12/28 03:30:42;;;;;;;6.50;3.63;;;5.20;99.90;;;;;;5005068;28;20602;-89
2020/12/28 03:33:07;;;;;;;9.93;4.30;;;5.30;99.90;;;;;;5024202;28;20181;-89
2020/12/28 03:35:33;;;;;;;6.60;4.83;;;5.20;99.90;;;;;;5024000;28;20200;-89
2020/12/28 03:38:00;;;;;;;6.03;3.53;;;5.30;99.90;;;;;;5015118;28;20245;-90
2020/12/28 03:40:26;;;;;;;11.93;4.50;;;5.10;99.90;;;;;;5003205;28;20184;-89
2020/12/28 03:42:51;;;;;;;8.23;5.13;;;4.90;99.90;;;;;;5003675;28;20618;-89
2020/12/28 03:45:18;;;;;;;16.87;4.57;;;4.80;99.90;;;;;;5003635;28;20544;-90
2020/12/28 03:47:45;;;;;;;10.30;4.97;;;4.70;99.90;;;;;;5000433;28;20174;-90
2020/12/28 03:50:12;;;;;;;14.33;5.40;;;4.80;99.90;;;;;;4991269;28;20212;-90
2020/12/28 03:52:39;;;;;;;12.03;4.73;;;4.70;99.90;;;;;;5001172;28;20177;-90
2020/12/28 03:55:06;;;;;;;13.40;4.97;;;4.70;99.90;;;;;;4999720;28;20236;-90
2020/12/28 03:57:31;;;;;;;11.13;5.27;;;4.80;99.90;;;;;;5003472;28;20234;-90
2020/12/28 03:59:58;;;;;;;11.10;5.30;;;4.70;99.90;;;;;;5003884;28;20234;-89
2020/12/28 04:02:24;;;;;;;20.60;4.93;;;4.70;99.90;;;;;;4986077;28;20192;-89
2020/12/28 04:04:50;;;;;;;10.73;4.90;;;4.70;99.90;;;;;;4997050;28;20623;-89
2020/12/28 04:07:16;;;;;;;11.57;4.97;;;4.80;99.90;;;;;;4982796;28;20273;-89
2020/12/28 04:09:42;;;;;;;18.13;5.77;;;4.80;99.90;;;;;;5009364;28;20185;-89
2020/12/28 04:12:08;;;;;;;18.43;5.17;;;4.80;99.90;;;;;;5003234;28;20173;-89
2020/12/28 04:14:35;;;;;;;11.50;4.40;;;4.80;99.90;;;;;;5003582;28;20247;-90
2020/12/28 04:17:01;;;;;;;17.23;5.03;;;4.80;99.90;;;;;;4967551;28;20635;-90
2020/12/28 04:19:26;;;;;;;18.67;5.53;;;4.90;99.90;;;;;;4984024;28;20188;-90
2020/12/28 04:21:52;;;;;;;14.33;5.17;;;4.90;99.90;;;;;;4983742;28;20178;-88
2020/12/28 04:24:18;;;;;;;19.17;5.90;;;4.90;99.90;;;;;;4983702;28;20177;-90
2020/12/28 04:26:44;;;;;;;15.73;4.60;;;4.90;99.90;;;;;;4975480;28;20328;-90
2020/12/28 04:29:16;;;;;;;11.90;4.57;;;4.90;99.90;;;;;;5018774;28;20184;-89
2020/12/28 04:31:42;;;;;;;13.63;4.33;;;5.00;99.90;;;;;;5003339;28;20177;-89
2020/12/28 04:34:08;;;;;;;14.90;4.73;;;5.00;99.90;;;;;;5018805;28;20185;-89
2020/12/28 04:36:36;;;;;;;9.50;4.53;;;5.00;99.90;;;;;;5002631;28;20527;-89
2020/12/28 04:39:06;;;;;;;18.20;4.90;;;4.90;99.90;;;;;;5002372;28;20181;-89
2020/12/28 04:41:33;;;;;;;15.27;4.70;;;4.80;99.90;;;;;;5003100;28;20180;-89
2020/12/28 04:44:00;;;;;;;18.73;4.63;;;4.70;99.90;;;;;;5002650;28;20184;-90
2020/12/28 04:46:30;;;;;;;15.53;4.60;;;4.70;99.90;;;;;;5001894;28;20629;-90
2020/12/28 04:48:58;;;;;;;16.23;4.30;;;4.70;99.90;;;;;;5000445;28;20184;-90
2020/12/28 04:51:25;;;;;;;21.87;5.17;;;4.80;99.90;;;;;;5017179;28;20195;-90
2020/12/28 04:53:52;;;;;;;16.17;4.50;;;4.80;99.90;;;;;;5016358;28;20165;-90
2020/12/28 04:56:19;;;;;;;16.87;4.60;;;4.80;99.90;;;;;;4997036;28;20194;-89
2020/12/28 04:58:45;;;;;;;24.83;4.60;;;4.80;99.90;;;;;;5000213;28;20166;-89
2020/12/28 05:01:10;;;;;;;14.13;4.60;;;4.90;99.90;;;;;;4983618;28;20204;-89
2020/12/28 05:03:36;;;;;;;15.67;4.03;;;4.90;99.90;;;;;;5007385;28;20172;-89
2020/12/28 05:06:02;;;;;;;14.93;4.30;;;5.00;99.90;;;;;;5000209;28;20184;-89
2020/12/28 05:08:27;;;;;;;16.77;4.20;;;5.00;99.90;;;;;;4998987;28;20175;-89
2020/12/28 05:10:53;;;;;;;12.90;4.23;;;5.00;99.90;;;;;;5016880;28;20176;-89
2020/12/28 05:13:19;;;;;;;15.03;4.20;;;5.10;99.90;;;;;;5017360;28;20275;-89
2020/12/28 05:15:55;;;;;;;13.67;4.00;;;5.20;99.90;;;;;;4999184;28;20211;-89
2020/12/28 05:18:21;;;;;;;11.93;4.23;;;5.20;99.90;;;;;;4982267;28;20173;-89
2020/12/28 05:20:48;;;;;;;12.70;4.90;;;5.20;99.90;;;;;;4980966;28;20187;-88
2020/12/28 05:23:15;;;;;;;25.13;4.23;;;5.10;99.90;;;;;;4964041;28;20185;-90
2020/12/28 05:25:49;;;;;;;27.00;4.37;;;5.10;99.90;;;;;;4981462;28;20232;-90
2020/12/28 05:28:37;;;;;;;14.67;4.60;;;5.00;99.90;;;;;;5015652;28;20292;-89
2020/12/28 05:31:06;;;;;;;20.77;4.20;;;4.90;99.90;;;;;;4999253;28;20212;-89
2020/12/28 05:33:33;;;;;;;20.70;4.03;;;4.80;99.90;;;;;;5016834;28;20183;-89
2020/12/28 05:35:58;;;;;;;15.57;4.00;;;4.80;99.90;;;;;;4999615;28;20200;-89
2020/12/28 05:38:27;;;;;;;11.93;3.50;;;4.80;99.90;;;;;;4966863;28;20247;-90
2020/12/28 05:41:04;;;;;;;11.77;3.50;;;4.80;99.90;;;;;;5017209;28;20165;-89
2020/12/28 05:43:31;;;;;;;12.53;4.13;;;4.80;99.90;;;;;;5021541;28;20176;-89
2020/12/28 05:45:57;;;;;;;20.30;4.10;;;4.90;99.90;;;;;;5001593;28;20168;-88
2020/12/28 05:48:24;;;;;;;19.53;3.93;;;4.90;99.90;;;;;;4983644;28;20205;-90
2020/12/28 05:50:57;;;;;;;13.17;3.47;;;4.80;99.90;;;;;;4995000;28;20178;-90
2020/12/28 05:53:24;;;;;;;14.50;3.60;;;4.80;99.90;;;;;;4994924;28;20665;-89
2020/12/28 05:55:51;;;;;;;24.70;3.63;;;4.70;99.90;;;;;;4999791;28;20211;-89
2020/12/28 05:58:19;;;;;;;8.73;3.00;;;4.80;99.90;;;;;;4986284;28;20209;-89
2020/12/28 06:00:48;;;;;;;11.00;3.33;;;4.80;99.90;;;;;;5002100;28;20161;-89
2020/12/28 06:03:25;;;;;;;18.43;3.00;;;4.80;99.90;;;;;;4999253;28;20177;-90
2020/12/28 06:05:55;;;;;;;10.47;3.07;;;4.80;99.90;;;;;;5016353;28;20203;-89
2020/12/28 06:08:21;;;;;;;19.10;3.40;;;4.90;99.90;;;;;;5018188;28;20217;-90
2020/12/28 06:10:48;;;;;;;15.10;3.50;;;4.90;99.90;;;;;;5020732;28;20177;-90
2020/12/28 06:13:24;;;;;;;16.20;2.63;;;4.80;99.90;;;;;;5017126;28;20216;-88
2020/12/28 06:16:01;;;;;;;10.80;3.20;;;4.90;99.90;;;;;;4988804;28;20220;-90
2020/12/28 06:18:26;;;;;;;18.73;2.63;;;4.90;99.90;;;;;;4996581;28;20576;-88
2020/12/28 06:20:52;;;;;;;14.40;3.00;;;4.80;99.90;;;;;;4995507;28;20224;-89
2020/12/28 06:23:28;;;;;;;9.67;2.40;;;4.80;99.90;;;;;;4995181;28;20185;-89
2020/12/28 06:25:56;;;;;;;13.43;2.23;;;4.80;99.90;;;;;;4995416;28;20181;-89
2020/12/28 06:28:23;;;;;;;9.23;2.43;;;4.80;99.90;;;;;;4998915;28;20185;-89
2020/12/28 06:30:49;;;;;;;10.57;2.63;;;4.80;99.90;;;;;;4999985;28;20282;-89
2020/12/28 06:33:16;;;;;;;13.27;2.87;;;4.70;99.90;;;;;;4998392;28;20210;-90
2020/12/28 06:35:42;;;;;;;18.03;2.67;;;4.70;99.90;;;;;;4991861;28;20279;-85
2020/12/28 06:38:07;;;;;;;8.77;2.43;;;4.80;99.90;;;;;;4967595;28;20323;-76
2020/12/28 06:40:38;;;;;;;11.43;2.33;;;4.80;99.90;;;;;;5017306;28;20173;-85
2020/12/28 06:43:15;;;;;;;11.83;2.47;;;4.80;99.90;;;;;;5017199;28;20161;-85
2020/12/28 06:45:44;;;;;;;13.83;2.10;;;4.90;99.90;;;;;;4999893;28;20180;-84
2020/12/28 06:48:24;;;;;;;12.10;2.27;;;4.90;99.90;;;;;;4999823;28;20579;-85
2020/12/28 06:50:51;;;;;;;8.83;2.17;;;5.00;99.90;;;;;;4999599;28;20263;-85
2020/12/28 06:53:26;;;;;;;14.40;2.10;;;5.00;99.90;;;;;;5017190;28;20172;-85
2020/12/28 06:55:52;;;;;;;9.17;1.60;;;5.00;99.90;;;;;;4984282;28;20192;-84
2020/12/28 06:58:18;;;;;;;11.77;2.37;;;5.10;99.90;;;;;;4983377;28;20226;-84
2020/12/28 07:00:44;;;;;;;10.87;3.80;;;5.10;99.90;;;;;;4999435;28;20176;-85
2020/12/28 07:03:12;;;;;;;8.70;2.20;;;5.20;99.90;;;;;;4999484;28;20517;-84
2020/12/28 07:05:38;;;;;;;7.63;1.70;;;5.10;99.90;;;;;;5017523;28;20587;-85
2020/12/28 07:08:04;;;;;;;9.43;2.00;;;5.20;99.90;;;;;;4999382;28;20207;-84
2020/12/28 07:10:30;;;;;;;13.03;2.53;;;5.20;99.90;;;;;;4999108;28;20222;-84
2020/12/28 07:13:07;;;;;;;15.20;1.97;;;5.20;99.90;;;;;;5016485;28;20212;-84
2020/12/28 07:15:34;;;;;;;12.17;2.10;;;5.20;99.90;;;;;;5016553;28;20188;-85
2020/12/28 07:18:09;;;;;;;8.23;2.03;;;5.30;99.90;;;;;;4999713;28;20183;-85
2020/12/28 07:20:35;;;;;;;10.83;2.43;;;5.30;99.90;;;;;;5017474;28;20168;-84
2020/12/28 07:23:01;;;;;;;12.43;2.00;;;5.40;99.90;;;;;;5017526;28;20203;-86
2020/12/28 07:25:27;;;;;;;18.30;2.50;;;5.30;99.90;;;;;;4996845;28;20187;-84
2020/12/28 07:27:54;;;;;;;12.43;2.63;;;5.20;99.90;;;;;;4979443;28;20205;-84
2020/12/28 07:30:19;;;;;;;11.13;2.40;;;5.20;99.90;;;;;;4979634;28;20177;-85
2020/12/28 07:32:45;;;;;;;12.13;2.40;;;5.30;99.90;;;;;;5006907;28;20192;-85
2020/12/28 07:35:11;;;;;;;11.17;2.63;;;5.20;99.90;;;;;;4998785;28;20528;-85
2020/12/28 07:37:42;;;;;;;7.27;2.30;;;5.20;99.90;;;;;;5016018;28;20173;-85
2020/12/28 07:40:08;;;;;;;8.83;2.23;;;5.10;99.90;;;;;;4998790;28;20630;-85
2020/12/28 07:42:34;;;;;;;9.27;2.03;;;5.10;99.90;;;;;;5016583;28;20692;-85
2020/12/28 07:45:05;;;;;;;10.07;2.50;;;5.10;99.90;;;;;;4998368;28;20188;-85
2020/12/28 07:47:40;;;;;;;14.17;2.40;;;5.10;99.90;;;;;;5015145;28;20188;-85
2020/12/28 07:50:08;;;;;;;9.73;2.40;;;5.10;99.90;;;;;;4998878;28;20179;-84
2020/12/28 07:52:45;;;;;;;20.70;2.80;;;5.20;99.90;;;;;;4995078;28;20178;-85
2020/12/28 07:55:17;;;;;;;24.07;2.93;;;5.10;99.90;;;;;;4997225;28;20192;-85
2020/12/28 07:58:03;;;;;;;5.87;2.77;;;5.20;99.90;;;;;;4978955;28;20264;-85
2020/12/28 08:00:36;;;;;;;10.57;3.50;;;5.20;99.90;;;;;;4994656;28;20276;-84
2020/12/28 08:03:16;;;;;;;13.47;3.63;;;5.20;99.90;;;;;;5007920;28;20157;-85
2020/12/28 08:05:43;;;;;;;9.10;2.90;;;5.20;99.90;;;;;;5016924;28;20157;-84
2020/12/28 08:08:25;;;;;;;16.17;2.67;;;5.20;99.90;;;;;;5008809;28;20294;-85
2020/12/28 08:10:53;;;;;;;7.80;2.07;;;5.30;99.90;;;;;;5018667;28;20264;-85
2020/12/28 08:13:30;;;;;;;8.23;3.37;;;5.40;99.90;;;;;;5029849;28;20641;-85
2020/12/28 08:16:13;;;;;;;19.53;3.30;;;5.40;99.90;;;;;;4998387;28;20299;-85
2020/12/28 08:18:49;;;;;;;12.10;2.57;;;5.40;99.90;;;;;;4999240;28;20610;-85
2020/12/28 08:21:16;;;;;;;17.87;2.80;;;5.50;99.90;;;;;;4998992;28;20173;-84
2020/12/28 08:23:52;;;;;;;12.23;3.27;;;5.40;99.90;;;;;;5000925;28;20323;-84
2020/12/28 08:26:20;;;;;;;16.23;2.73;;;5.40;99.90;;;;;;5009494;28;20187;-85
2020/12/28 08:28:50;;;;;;;12.20;3.40;;;5.60;99.90;;;;;;5019087;28;20189;-85
2020/12/28 08:31:16;;;;;;;10.97;3.00;;;5.70;99.90;;;;;;4999938;28;20264;-84
2020/12/28 08:33:42;;;;;;;12.77;3.77;;;5.70;99.90;;;;;;4978336;28;20643;-84
2020/12/28 08:36:07;;;;;;;16.30;4.43;;;5.60;99.90;;;;;;4987636;28;20283;-85
2020/12/28 08:38:33;;;;;;;11.83;2.97;;;5.50;99.90;;;;;;4997447;28;20180;-84
2020/12/28 08:40:59;;;;;;;8.37;2.77;;;5.60;99.90;;;;;;4997450;28;20201;-84
2020/12/28 08:43:25;;;;;;;21.97;3.23;;;5.50;99.90;;;;;;4998220;28;20181;-84
2020/12/28 08:46:02;;;;;;;15.13;2.23;;;5.60;99.90;;;;;;5014700;28;20251;-85
2020/12/28 08:48:27;;;;;;;11.80;2.73;;;5.50;99.90;;;;;;5013693;28;20168;-85
2020/12/28 08:50:53;;;;;;;6.00;2.73;;;5.50;99.90;;;;;;4998956;28;20184;-84
2020/12/28 08:53:23;;;;;;;8.30;2.17;;;5.60;99.90;;;;;;5015917;28;20252;-85
2020/12/28 08:56:01;;;;;;;8.63;2.67;;;5.70;99.90;;;;;;5013800;28;20212;-85
2020/12/28 08:58:27;;;;;;;11.50;2.50;;;5.90;99.90;;;;;;4996014;28;20591;-84
2020/12/28 09:00:53;;;;;;;11.00;2.57;;;6.20;99.90;;;;;;5015598;28;20168;-85
2020/12/28 09:03:19;;;;;;;12.57;3.00;;;6.20;99.90;;;;;;4998115;28;20180;-84
2020/12/28 09:05:44;;;;;;;12.40;3.00;;;6.20;99.90;;;;;;4981643;28;20673;-84
2020/12/28 09:08:10;;;;;;;11.90;3.20;;;6.30;99.90;;;;;;5018000;28;20173;-76
2020/12/28 09:10:35;;;;;;;12.37;2.83;;;6.40;99.90;;;;;;5014053;28;20176;-75
2020/12/28 09:13:02;;;;;;;8.83;2.93;;;6.50;99.90;;;;;;5014258;28;20184;-75
2020/12/28 09:15:27;;;;;;;14.40;3.30;;;6.30;99.90;;;;;;5014032;28;20201;-75
2020/12/28 09:17:53;;;;;;;5.67;2.73;;;6.40;99.90;;;;;;5014088;28;20199;-75
2020/12/28 09:20:18;;;;;;;10.20;2.60;;;6.50;99.90;;;;;;5014003;28;20172;-75
2020/12/28 09:22:44;;;;;;;6.73;2.20;;;6.50;99.90;;;;;;5014330;28;20223;-75
2020/12/28 09:25:10;;;;;;;6.83;2.73;;;6.60;99.90;;;;;;5013301;28;20242;-75
2020/12/28 09:27:35;;;;;;;11.37;2.90;;;6.60;99.90;;;;;;5014221;28;20641;-75
2020/12/28 09:30:06;;;;;;;7.63;2.80;;;6.60;99.90;;;;;;5014363;28;20184;-75
2020/12/28 09:32:32;;;;;;;10.43;2.93;;;6.60;99.90;;;;;;5013813;28;20168;-75
2020/12/28 09:34:58;;;;;;;8.50;3.03;;;6.80;99.90;;;;;;5013503;28;20291;-75
2020/12/28 09:37:24;;;;;;;17.80;3.40;;;6.90;99.90;;;;;;5013727;28;20211;-75
2020/12/28 09:39:49;;;;;;;12.03;3.50;;;7.00;99.90;;;;;;5013851;28;20235;-75
2020/12/28 09:42:15;;;;;;;10.53;4.13;;;7.10;99.90;;;;;;5013494;28;20642;-75
2020/12/28 09:44:40;;;;;;;5.80;2.73;;;6.90;99.90;;;;;;5013939;28;20176;-75
2020/12/28 09:47:06;;;;;;;11.77;3.53;;;7.10;99.90;;;;;;5013922;28;20175;-75
2020/12/28 09:49:32;;;;;;;17.10;3.10;;;7.10;99.90;;;;;;4996248;28;20176;-75
2020/12/28 09:51:58;;;;;;;6.60;2.90;;;7.20;99.90;;;;;;5013709;28;20704;-75
2020/12/28 09:54:24;;;;;;;5.90;2.40;;;7.10;99.90;;;;;;5013001;28;20221;-75
2020/12/28 09:56:49;;;;;;;9.90;2.53;;;7.20;99.90;;;;;;4996385;28;20204;-75
2020/12/28 09:59:16;;;;;;;11.10;3.07;;;7.10;99.90;;;;;;5013839;28;20199;-75
2020/12/28 10:01:45;;;;;;;10.17;2.83;;;7.00;99.90;;;;;;5013302;28;20184;-75
2020/12/28 10:04:12;;;;;;;9.50;2.70;;;7.00;99.90;;;;;;5013617;28;20642;-75
2020/12/28 10:06:39;;;;;;;9.03;2.67;;;6.90;99.90;;;;;;5013947;28;20375;-75
2020/12/28 10:09:07;;;;;;;9.63;2.57;;;7.00;99.90;;;;;;5013111;28;20220;-76
2020/12/28 10:11:33;;;;;;;8.57;2.23;;;7.00;99.90;;;;;;5013323;28;20196;-75
2020/12/28 10:13:59;;;;;;;11.40;2.57;;;6.70;99.90;;;;;;5013754;28;20177;-75
2020/12/28 10:16:26;;;;;;;4.83;2.13;;;6.70;99.90;;;;;;5014017;28;20287;-75
2020/12/28 10:18:55;;;;;;;4.77;2.50;;;6.70;99.90;;;;;;5013372;28;20634;-75
2020/12/28 10:21:25;;;;;;;8.10;2.10;;;6.90;99.90;;;;;;5012782;28;20187;-75
2020/12/28 10:23:51;;;;;;;10.90;2.90;;;6.90;99.90;;;;;;5012808;28;20185;-75
2020/12/28 10:26:21;;;;;;;10.70;2.17;;;6.80;99.90;;;;;;5013071;28;20537;-75
2020/12/28 10:28:48;;;;;;;13.83;2.67;;;6.90;99.90;;;;;;5013185;28;20188;-75
2020/12/28 10:31:15;;;;;;;5.93;2.60;;;6.90;99.90;;;;;;5013074;28;20181;-75
2020/12/28 10:33:42;;;;;;;4.13;2.43;;;7.00;99.90;;;;;;5013401;28;20168;-75
2020/12/28 10:36:13;;;;;;;7.87;3.20;;;7.20;99.90;;;;;;5013136;28;20200;-75
2020/12/28 10:38:39;;;;;;;10.53;3.20;;;7.10;99.90;;;;;;5014997;28;20211;-75
2020/12/28 10:41:05;;;;;;;10.23;3.10;;;7.30;99.90;;;;;;5013195;28;20185;-75
2020/12/28 10:43:30;;;;;;;8.77;3.50;;;7.50;99.90;;;;;;5013105;28;20180;-73
2020/12/28 10:45:56;;;;;;;14.07;3.00;;;7.70;99.90;;;;;;5013336;28;20180;-74
2020/12/28 10:48:22;;;;;;;9.27;2.60;;;7.80;99.90;;;;;;5012867;28;20695;-74
2020/12/28 10:50:47;;;;;;;11.83;3.03;;;8.00;99.90;;;;;;5013063;28;20177;-74
2020/12/28 10:53:13;;;;;;;7.03;2.83;;;8.10;99.90;;;;;;5013600;28;20591;-74
2020/12/28 10:55:38;;;;;;;4.50;2.67;;;8.20;99.90;;;;;;4996041;28;20211;-73
2020/12/28 10:58:04;;;;;;;4.73;2.67;;;8.30;99.90;;;;;;5013146;28;20219;-74
2020/12/28 11:00:30;;;;;;;8.33;2.90;;;8.40;99.90;;;;;;5013337;28;20256;-74
2020/12/28 11:02:55;;;;;;;10.87;2.70;;;8.50;99.90;;;;;;5012910;28;20173;-74
2020/12/28 11:05:21;;;;;;;9.23;3.40;;;8.40;99.90;;;;;;4995745;28;20192;-75
2020/12/28 11:07:46;;;;;;;10.27;2.80;;;8.40;99.90;;;;;;5013452;28;20177;-75
2020/12/28 11:10:12;;;;;;;6.77;2.47;;;8.50;99.90;;;;;;4995205;28;20177;-75
2020/12/28 11:12:38;;;;;;;9.67;2.80;;;8.30;99.90;;;;;;5013197;28;20180;-75
2020/12/28 11:15:04;;;;;;;3.33;1.90;;;8.30;99.90;;;;;;5015275;28;20204;-75
2020/12/28 11:17:29;;;;;;;7.33;2.70;;;7.90;99.90;;;;;;5016168;28;20188;-74
2020/12/28 11:19:55;;;;;;;7.00;2.23;;;7.90;99.90;;;;;;5016941;28;20181;-74
2020/12/28 11:22:20;;;;;;;8.17;2.20;;;7.70;99.90;;;;;;4998453;28;20177;-75
2020/12/28 11:24:46;;;;;;;6.40;2.80;;;7.80;99.90;;;;;;4995032;28;20537;-75
2020/12/28 11:27:12;;;;;;;11.43;2.37;;;7.90;99.90;;;;;;4979413;28;20189;-75
2020/12/28 11:29:37;;;;;;;10.37;2.57;;;8.10;99.90;;;;;;4997600;28;20181;-75
2020/12/28 11:32:03;;;;;;;8.23;3.37;;;8.30;99.90;;;;;;5016079;28;20565;-75
2020/12/28 11:34:29;;;;;;;7.63;2.37;;;8.20;99.90;;;;;;5016044;28;20181;-74
2020/12/28 11:36:54;;;;;;;7.50;2.40;;;8.20;99.90;;;;;;5015783;28;20503;-75
2020/12/28 11:39:20;;;;;;;8.90;2.73;;;8.30;99.90;;;;;;4998075;28;20227;-75
2020/12/28 11:41:46;;;;;;;3.67;2.07;;;8.20;99.90;;;;;;5015419;28;20181;-76
2020/12/28 11:44:12;;;;;;;8.20;2.60;;;8.20;99.90;;;;;;4998083;28;20231;-76
2020/12/28 11:46:38;;;;;;;7.23;2.40;;;8.10;99.90;;;;;;5015283;28;20542;-75
2020/12/28 11:49:04;;;;;;;9.00;2.63;;;8.00;99.90;;;;;;4998292;28;20557;-75
2020/12/28 11:51:30;;;;;;;8.80;2.40;;;8.00;99.90;;;;;;4997974;28;20210;-75
2020/12/28 11:53:56;;;;;;;7.03;3.00;;;8.00;99.90;;;;;;5014728;28;20200;-75
2020/12/28 11:56:22;;;;;;;5.27;2.50;;;8.10;99.90;;;;;;5015001;28;20238;-75
2020/12/28 11:58:47;;;;;;;7.60;2.97;;;8.10;99.90;;;;;;4997991;28;20210;-74
2020/12/28 12:01:18;;;;;;;9.07;3.13;;;8.20;99.90;;;;;;5014872;28;20181;-74
2020/12/28 12:03:46;;;;;;;4.30;2.30;;;8.20;99.90;;;;;;5015594;28;20188;-74
2020/12/28 12:06:21;;;;;;;7.20;2.43;;;8.20;99.90;;;;;;5015651;28;20172;-75
2020/12/28 12:11:31;;;;;;;6.47;2.77;;;8.50;99.90;;;;;;5015017;28;20179;-74
2020/12/28 12:13:57;;;;;;;6.30;2.07;;;8.60;99.90;;;;;;5014902;28;20181;-74
2020/12/28 12:16:24;;;;;;;4.97;2.00;;;8.70;99.90;;;;;;5014891;28;20290;-74
2020/12/28 12:18:49;;;;;;;7.43;2.60;;;8.70;99.90;;;;;;5015238;28;20534;-74
2020/12/28 12:21:15;;;;;;;5.47;2.57;;;8.80;99.90;;;;;;5014893;28;20173;-74
2020/12/28 12:23:41;;;;;;;5.47;2.37;;;8.90;99.90;;;;;;5014542;28;20254;-74
2020/12/28 12:26:07;;;;;;;5.60;2.20;;;8.60;99.90;;;;;;4997382;28;20182;-75
2020/12/28 12:28:33;;;;;;;3.70;2.47;;;8.70;99.90;;;;;;5014881;28;20188;-75
2020/12/28 12:30:59;;;;;;;4.67;2.40;;;8.60;99.90;;;;;;5014301;28;20239;-74
2020/12/28 12:33:25;;;;;;;4.93;2.30;;;8.90;99.90;;;;;;5016797;28;20179;-77
2020/12/28 12:35:50;;;;;;;5.40;2.63;;;9.10;99.90;;;;;;5015593;28;20200;-75
2020/12/28 12:38:16;;;;;;;5.80;1.67;;;9.10;99.90;;;;;;4996967;28;20207;-76
2020/12/28 12:40:42;;;;;;;4.30;1.63;;;9.20;99.90;;;;;;5014912;28;20176;-77
2020/12/28 12:43:07;;;;;;;2.30;1.57;;;9.40;99.90;;;;;;5014723;28;20192;-76
2020/12/28 12:45:33;;;;;;;4.43;1.80;;;10.00;99.90;;;;;;5014255;28;20177;-76
2020/12/28 12:47:58;;;;;;;4.33;1.77;;;10.30;99.90;;;;;;5014741;28;20184;-83
2020/12/28 12:50:24;;;;;;;4.88;1.98;;;10.60;99.90;;;;;;4996933;28;20232;-83
2020/12/28 12:52:50;;;;;;;1.85;1.70;;;10.70;99.90;;;;;;4996252;28;20176;-76